Time;durP1;ratioP1;P1;durP2;ratioP2;P2;SDS_P1;SDS_P2;PMS_P1;PMS_P2;Temp;Humidity;BMP_temperature;BMP_pressure;BME280_temperature;BME280_humidity;BME280_pressure;Samples;Min_cycle;Max_cycle;Signal;HPM_P1;HPM_P2
2021/05/29 05:51:14;;;;;;;;;;;12.80;99.90;;;;;;6232342;22;19923;31
2021/05/29 06:50:14;;;;;;;;;;;12.40;99.90;;;;;;6212008;22;19919;-96
2021/05/29 08:09:18;;;;;;;;;;;12.90;99.90;;;;;;6274199;22;20411;-94
2021/05/29 08:19:54;;;;;;;;;;;12.30;99.90;;;;;;6264700;22;19926;-95
2021/05/29 08:26:20;;;;;;;;;;;11.60;99.90;;;;;;6332972;22;19961;-96
2021/05/29 10:10:58;;;;;;;;;;;;;;;;;;;;;
2021/05/29 10:20:45;;;;;;;;;;;10.60;99.90;;;;;;6331187;22;20289;-96
2021/05/29 10:34:09;;;;;;;;;;;12.60;99.90;;;;;;6107516;23;19924;-96
2021/05/29 10:36:40;;;;;;;;;;;13.00;99.90;;;;;;6082329;23;19922;-96
2021/05/29 10:39:22;;;;;;;;;;;12.90;99.90;;;;;;6081063;23;19949;-96
2021/05/29 10:41:53;;;;;;;;;;;12.60;99.90;;;;;;6084139;23;19940;-96
2021/05/29 10:44:45;;;;;;;;;;;12.50;99.90;;;;;;6081516;23;19921;-96
2021/05/29 10:48:13;;;;;;;;;;;;;;;;;;;;;
2021/05/29 10:54:16;;;;;;;;;;;11.40;99.90;;;;;;6063416;23;19950;-95
2021/05/29 10:57:18;;;;;;;;;;;11.20;99.90;;;;;;6064242;23;20010;-96
2021/05/29 11:16:04;;;;;;;;;;;12.70;99.90;;;;;;6269181;22;19972;-96
2021/05/29 11:22:03;;;;;;;;;;;13.50;99.90;;;;;;6320126;22;19919;-96
2021/05/29 11:24:41;;;;;;;;;;;13.70;99.90;;;;;;6294560;22;19910;-95
2021/05/29 11:27:47;;;;;;;;;;;13.70;99.90;;;;;;6296618;22;19927;-96
2021/05/29 11:30:35;;;;;;;;;;;13.60;99.90;;;;;;6307455;22;19950;-96
2021/05/29 11:35:59;;;;;;;;;;;13.20;99.90;;;;;;6334676;22;19942;-95
2021/05/29 11:38:32;;;;;;;;;;;13.20;99.90;;;;;;6309707;22;19973;-95
2021/05/29 11:41:11;;;;;;;;;;;13.50;99.90;;;;;;6299209;22;19919;-96
2021/05/29 11:44:19;;;;;;;;;;;13.60;99.90;;;;;;6263874;22;19903;-96
2021/05/29 11:51:18;;;;;;;;;;;;;;;;;;;;;
2021/05/29 11:53:55;;;;;;;;;;;12.40;99.90;;;;;;6263635;23;19959;-96
2021/05/29 12:00:09;;;;;;;;;;;11.40;99.90;;;;;;6269424;22;19946;-96
2021/05/29 12:03:11;;;;;;;;;;;;;;;;;;;;;
2021/05/29 12:14:08;;;;;;;;;;;8.50;99.90;;;;;;6285551;22;19919;-96
2021/05/29 12:16:59;;;;;;;;;;;;;;;;;;;;;
2021/05/29 12:19:35;;;;;;;;;;;8.50;99.90;;;;;;6289498;22;19928;-96
2021/05/29 12:29:21;;;;;;;;;;;8.90;99.90;;;;;;6271564;22;19934;-95
2021/05/29 12:35:39;;;;;;;;;;;8.40;99.90;;;;;;6229520;23;19920;-95
2021/05/29 12:38:33;;;;;;;;;;;8.10;99.90;;;;;;6200123;23;19920;-95
2021/05/29 12:41:34;;;;;;;;;;;8.00;99.90;;;;;;6170465;23;20432;-95
2021/05/29 12:44:23;;;;;;;;;;;8.10;99.90;;;;;;6176115;23;19909;-92
2021/05/29 12:59:53;;;;;;;;;;;9.90;99.90;;;;;;6331558;22;19942;-96
2021/05/29 13:09:25;;;;;;;;;;;10.90;99.90;;;;;;6318539;22;19988;-95
2021/05/29 13:11:59;;;;;;;;;;;11.30;99.90;;;;;;6293761;22;19946;-95
2021/05/29 13:14:30;;;;;;;;;;;11.80;99.90;;;;;;6277554;22;19919;-96
2021/05/29 13:20:26;;;;;;;;;;;12.90;99.90;;;;;;6292351;22;20270;-93
2021/05/29 13:23:01;;;;;;;;;;;13.90;99.90;;;;;;6260165;22;20002;-96
2021/05/29 13:25:38;;;;;;;;;;;14.50;99.90;;;;;;6253884;22;19919;-96
2021/05/29 13:28:09;;;;;;;;;;;14.60;99.90;;;;;;6254241;22;19930;-96
2021/05/29 13:30:40;;;;;;;;;;;14.20;99.90;;;;;;6254614;22;19919;-96
2021/05/29 13:33:11;;;;;;;;;;;14.10;99.90;;;;;;6255043;22;19943;-96
2021/05/29 13:35:40;;;;;;;;;;;13.90;99.90;;;;;;6254144;22;20321;-95
2021/05/29 13:38:07;;;;;;;;;;;13.80;99.90;;;;;;6264221;22;19915;-94
2021/05/29 13:40:35;;;;;;;;;;;13.80;99.90;;;;;;6280661;22;19939;-94
2021/05/29 13:43:02;;;;;;;;;;;14.30;99.90;;;;;;6246471;22;20334;-94
2021/05/29 13:45:32;;;;;;;;;;;15.00;99.90;;;;;;6256971;22;19986;-96
2021/05/29 13:51:32;;;;;;;;;;;14.90;99.90;;;;;;6287445;22;19927;-96
2021/05/29 13:54:01;;;;;;;;;;;15.90;99.90;;;;;;6265098;22;19930;-96
2021/05/29 13:56:42;;;;;;;;;;;16.80;99.90;;;;;;6266230;22;20236;-96
2021/05/29 13:59:11;;;;;;;;;;;17.40;99.90;;;;;;6264449;22;19929;-96
2021/05/29 14:01:41;;;;;;;;;;;17.80;99.90;;;;;;6284711;22;19919;-96
2021/05/29 14:04:09;;;;;;;;;;;18.00;99.90;;;;;;6259653;22;20350;-96
2021/05/29 14:06:37;;;;;;;;;;;17.50;99.90;;;;;;6258955;22;20377;-96
2021/05/29 14:09:14;;;;;;;;;;;17.00;99.90;;;;;;6258404;22;19920;-96
2021/05/29 14:11:42;;;;;;;;;;;16.80;99.90;;;;;;6254176;22;19963;-96
2021/05/29 14:14:10;;;;;;;;;;;16.50;99.90;;;;;;6257340;22;19919;-96
2021/05/29 14:16:39;;;;;;;;;;;16.20;99.90;;;;;;6252685;23;19920;-96
2021/05/29 14:19:06;;;;;;;;;;;15.70;99.90;;;;;;6249599;23;19920;-96
2021/05/29 14:24:56;;;;;;;;;;;15.20;99.90;;;;;;6249586;23;20006;-95
2021/05/29 14:27:23;;;;;;;;;;;15.00;99.90;;;;;;6249174;23;20321;-96
2021/05/29 14:29:50;;;;;;;;;;;14.90;99.90;;;;;;6249541;22;20351;-96
2021/05/29 14:32:17;;;;;;;;;;;14.70;99.90;;;;;;6249505;23;20296;-95
2021/05/29 14:34:45;;;;;;;;;;;14.60;99.90;;;;;;6249247;23;19927;-96
2021/05/29 14:37:12;;;;;;;;;;;14.60;99.90;;;;;;6249167;23;20244;-96
2021/05/29 14:39:43;;;;;;;;;;;14.40;99.90;;;;;;6249041;23;19973;-95
2021/05/29 14:42:11;;;;;;;;;;;14.20;99.90;;;;;;6250528;23;19955;-96
2021/05/29 14:44:39;;;;;;;;;;;13.90;99.90;;;;;;6248460;23;19931;-96
2021/05/29 14:47:06;;;;;;;;;;;13.80;99.90;;;;;;6247687;22;19924;-96
2021/05/29 14:49:33;;;;;;;;;;;13.50;99.90;;;;;;6247664;23;19986;-96
2021/05/29 14:52:00;;;;;;;;;;;13.40;99.90;;;;;;6247783;23;20252;-96
2021/05/29 14:54:28;;;;;;;;;;;13.50;99.90;;;;;;6249809;23;19919;-95
2021/05/29 14:56:56;;;;;;;;;;;13.30;99.90;;;;;;6251311;23;19940;-95
2021/05/29 14:59:23;;;;;;;;;;;13.10;99.90;;;;;;6250264;23;19965;-96
2021/05/29 15:01:50;;;;;;;;;;;12.90;99.90;;;;;;6249016;23;19927;-96
2021/05/29 15:04:20;;;;;;;;;;;12.90;99.90;;;;;;6249559;23;19935;-96
2021/05/29 15:06:48;;;;;;;;;;;13.00;99.90;;;;;;6249670;23;19927;-96
2021/05/29 15:09:15;;;;;;;;;;;13.00;99.90;;;;;;6250018;23;19919;-96
2021/05/29 15:11:49;;;;;;;;;;;13.20;99.90;;;;;;6225881;23;19919;-95
2021/05/29 15:17:48;;;;;;;;;;;13.50;99.90;;;;;;6287922;22;19929;-96
2021/05/29 15:23:38;;;;;;;;;;;15.60;99.90;;;;;;6129377;23;19921;-94
2021/05/29 15:26:11;;;;;;;;;;;16.90;99.90;;;;;;6102687;23;19928;-93
2021/05/29 15:28:41;;;;;;;;;;;17.60;99.90;;;;;;6114199;23;19909;-94
2021/05/29 15:31:09;;;;;;;;;;;18.20;99.90;;;;;;6127366;23;19921;-94
2021/05/29 15:33:35;;;;;;;;;;;18.20;99.90;;;;;;6128711;23;19940;-93
2021/05/29 15:36:02;;;;;;;;;;;17.90;99.90;;;;;;6119161;23;19916;-92
2021/05/29 15:38:29;;;;;;;;;;;18.00;99.20;;;;;;6111844;23;19980;-94
2021/05/29 15:40:57;;;;;;;;;;;17.70;99.90;;;;;;6101731;23;19928;-92
2021/05/29 15:43:42;;;;;;;;;;;17.40;99.90;;;;;;6102335;23;19928;-96
2021/05/29 15:46:40;;;;;;;;;;;17.60;99.70;;;;;;5992182;23;20062;-96
2021/05/29 15:53:17;;;;;;;;;;;17.40;99.60;;;;;;5932698;23;19918;-96
2021/05/29 16:03:12;;;;;;;;;;;;;;;;;;;;;
2021/05/29 16:28:39;;;;;;;;;;;15.30;99.90;;;;;;5100260;23;20386;-95
2021/05/29 16:31:17;;;;;;;;;;;14.90;99.90;;;;;;4963821;29;19927;-88
2021/05/29 16:34:16;;;;;;;;;;;14.40;99.90;;;;;;4963147;28;19927;-96
2021/05/29 16:53:10;;;;;;;;;;;13.00;99.90;;;;;;4988061;28;19933;-92
2021/05/29 17:48:19;;;;;;;;;;;10.60;99.90;;;;;;5223957;23;19948;-95
2021/05/29 18:06:26;;;;;;;;;;;11.70;99.90;;;;;;832815;23;21536;-94
2021/05/29 18:08:57;;;;;;;;;;;12.10;99.90;;;;;;4939124;29;20017;-92
2021/05/29 18:11:24;;;;;;;;;;;12.30;99.90;;;;;;4925159;29;20427;-93
2021/05/29 18:13:52;;;;;;;;;;;12.70;99.90;;;;;;4924392;29;19943;-94
2021/05/29 18:16:19;;;;;;;;;;;12.80;99.90;;;;;;4924838;29;19927;-93
2021/05/29 18:18:47;;;;;;;;;;;13.00;99.90;;;;;;4924327;29;19931;-94
2021/05/29 18:21:23;;;;;;;;;;;12.90;99.90;;;;;;4924664;29;19926;-94
2021/05/29 18:28:05;;;;;;;;;;;12.20;99.90;;;;;;4926554;29;19989;-96
2021/05/29 18:30:57;;;;;;;;;;;11.60;99.90;;;;;;4871522;29;20449;-96
2021/05/29 18:37:06;;;;;;;;;;;11.00;99.90;;;;;;5454603;23;19926;-95
2021/05/29 18:46:10;;;;;;;;;;;10.20;99.90;;;;;;3649096;23;20241;-94
2021/05/29 19:03:52;;;;;;;;;;;9.20;99.90;;;;;;5353128;23;19918;-95
2021/05/29 20:05:15;;;;;;;;;;;6.70;99.90;;;;;;5073328;23;19926;-95
